Hauptseite
METAR-TAF:

METAR-TAF

Flughäfen :

Siegerlandflughafen

Siegen, Deutschland

Breite: 50-42-28N, Länge: 008-04-59E, Höhe: 602 m

METAR: fehlend

Zeit: 01:20 (23:20 UTC)

Prognose

Neuester Wetterbericht von vor 30 Stunden und 20 Minuten, um 17:00 UTC
Gültige Prognose vom 25 um 18 UTC bis 26 um 03 UTC
Wind 9 kt aus Südwest
Sichtweite 10 km oder mehr
Leicht bewölkt in der Höhe von 1500 ft
Aufgelockert bewölkt in der Höhe von 2500 ft
Übergehend zu
vom 25 um 22 UTC bis 26 um 01 UTC
Durchbrochene Bewölkung in der Höhe von 1100 ft
Zeitweise
vom 25 um 23 UTC bis 26 um 03 UTC
Sichtweite: 3500 m
Durchbrochene Bewölkung in der Höhe von 800 ft
Durchbrochene Bewölkung in der Höhe von 1200 ft, Towering cumulus.
Regenschauer

TAF: EDGS 251700Z 2518/2603 22009KT 9999 FEW015 SCT025 BECMG 2522/2601 BKN011 TEMPO 2523/2603 3500 SHRA BKN008 BKN012TCU

Wetterbeobachtungen und Prognosen von mehr als 4000 Flughäfen (METAR und TAF Bericht).

Die verfügbaren Stationen werden durch gelbe und rote Markierungen auf der Karte dargestellt.

Führen Sie die Maus auf sie, um den Namen der Station zu sehen.

Darauf klicken, um die Beobachtung von Wetterbeobachtungen und Prognosen zu sehen.

Um die Karte zu ändern : klicken Sie auf den grünen Tasten mit einem schwarzen Kreuz Zum Vergrößern, auf den grünen Button mit einem Gedankenstrich zu verkleinern, oder auf die grünen Pfeile für benachbarte Karten.


METAR-TAF: